Time;durP1;ratioP1;P1;durP2;ratioP2;P2;SDS_P1;SDS_P2;PMS_P1;PMS_P2;Temp;Humidity;BMP_temperature;BMP_pressure;BME280_temperature;BME280_humidity;BME280_pressure;Samples;Min_cycle;Max_cycle;Signal;HPM_P1;HPM_P2
2020/12/10 00:00:26;;;;;;;5.68;3.40;;;15.70;54.00;;;;;;5094430;28;20035;-61
2020/12/10 00:02:52;;;;;;;4.20;3.17;;;15.70;54.00;;;;;;5095273;28;20043;-61
2020/12/10 00:05:18;;;;;;;6.88;3.53;;;15.70;54.10;;;;;;5095030;28;20035;-61
2020/12/10 00:07:44;;;;;;;3.75;2.88;;;15.70;54.20;;;;;;5095273;28;20028;-61
2020/12/10 00:10:10;;;;;;;6.18;3.33;;;15.70;54.00;;;;;;5095246;28;20469;-62
2020/12/10 00:12:43;;;;;;;5.43;3.53;;;15.80;54.00;;;;;;5076777;28;20524;-62
2020/12/10 00:15:11;;;;;;;4.10;2.85;;;15.80;53.90;;;;;;5094861;28;20016;-62
2020/12/10 00:17:36;;;;;;;4.05;3.17;;;15.90;53.90;;;;;;5094747;28;20672;-61
2020/12/10 00:20:08;;;;;;;5.07;3.58;;;15.90;53.70;;;;;;5094959;28;20103;-61
2020/12/10 00:22:34;;;;;;;3.70;3.08;;;15.90;53.70;;;;;;5094813;28;20036;-61
2020/12/10 00:25:01;;;;;;;4.13;3.00;;;15.90;53.70;;;;;;5094621;28;20024;-62
2020/12/10 00:27:27;;;;;;;4.05;2.90;;;16.00;53.70;;;;;;5095065;28;20038;-61
2020/12/10 00:29:57;;;;;;;3.30;3.00;;;16.00;53.60;;;;;;5094427;28;20017;-61
2020/12/10 00:32:26;;;;;;;4.57;2.90;;;16.10;53.60;;;;;;5076392;28;20047;-61
2020/12/10 00:34:55;;;;;;;3.63;3.03;;;16.00;53.50;;;;;;5094433;28;20771;-61
2020/12/10 00:37:21;;;;;;;3.97;3.05;;;16.10;53.50;;;;;;5094309;28;20492;-61
2020/12/10 00:39:47;;;;;;;3.47;2.80;;;16.10;53.50;;;;;;5094645;28;20122;-61
2020/12/10 00:42:12;;;;;;;3.78;2.90;;;16.00;53.60;;;;;;5094559;28;20412;-62
2020/12/10 00:44:38;;;;;;;3.85;2.90;;;16.00;53.50;;;;;;5094501;28;20469;-61
2020/12/10 00:47:03;;;;;;;4.18;2.80;;;16.00;53.60;;;;;;5094407;28;20058;-61
2020/12/10 00:49:29;;;;;;;3.30;3.00;;;16.00;53.70;;;;;;5094532;28;20016;-61
2020/12/10 00:51:54;;;;;;;4.78;3.05;;;16.00;53.80;;;;;;5094436;28;20028;-61
2020/12/10 00:54:21;;;;;;;3.65;2.80;;;15.90;53.60;;;;;;5094376;28;20008;-61
2020/12/10 00:56:47;;;;;;;3.35;2.72;;;15.90;53.80;;;;;;5094343;28;20028;-61
2020/12/10 00:59:13;;;;;;;3.35;2.70;;;15.90;53.90;;;;;;5094354;28;20063;-61
2020/12/10 01:01:41;;;;;;;4.55;3.15;;;15.90;54.00;;;;;;5093910;28;20056;-61
2020/12/10 01:04:07;;;;;;;4.97;3.55;;;15.90;53.80;;;;;;5094238;28;20442;-61
2020/12/10 01:06:33;;;;;;;3.92;2.92;;;15.90;54.10;;;;;;5094007;28;20042;-61
2020/12/10 01:08:58;;;;;;;5.43;3.25;;;15.90;54.10;;;;;;5093859;28;20103;-61
2020/12/10 01:11:27;;;;;;;3.97;2.78;;;15.80;54.10;;;;;;5093077;28;20024;-61
2020/12/10 01:13:55;;;;;;;3.58;2.95;;;15.80;54.10;;;;;;5094037;28;20016;-61
2020/12/10 01:16:21;;;;;;;3.22;2.70;;;15.80;54.20;;;;;;5093871;28;20469;-61
2020/12/10 01:18:47;;;;;;;3.60;2.80;;;15.70;54.10;;;;;;5093949;28;20162;-61
2020/12/10 01:21:12;;;;;;;2.83;2.40;;;15.80;54.10;;;;;;5093867;28;20434;-61
2020/12/10 01:23:38;;;;;;;3.45;2.75;;;15.80;54.20;;;;;;5093565;28;20559;-61
2020/12/10 01:26:03;;;;;;;4.03;3.10;;;15.70;54.20;;;;;;5093718;28;20051;-61
2020/12/10 01:28:29;;;;;;;2.65;2.45;;;15.70;54.10;;;;;;5093304;28;20022;-61
2020/12/10 01:30:55;;;;;;;4.00;2.83;;;15.70;54.10;;;;;;5093650;28;20031;-62
2020/12/10 01:33:20;;;;;;;2.88;2.50;;;15.70;54.30;;;;;;5093595;28;20020;-61
2020/12/10 01:35:46;;;;;;;2.70;2.38;;;15.70;54.10;;;;;;5093582;28;20435;-62
2020/12/10 01:38:11;;;;;;;4.22;2.67;;;15.70;54.20;;;;;;5093293;28;20032;-61
2020/12/10 01:40:37;;;;;;;2.63;2.10;;;15.70;54.10;;;;;;5076198;27;20056;-61
2020/12/10 01:43:03;;;;;;;2.80;2.30;;;15.70;54.20;;;;;;5073139;28;20017;-61
2020/12/10 01:45:28;;;;;;;2.47;2.28;;;15.70;54.00;;;;;;5073007;28;20053;-61
2020/12/10 01:47:54;;;;;;;3.08;2.60;;;15.80;54.00;;;;;;5073098;28;20025;-61
2020/12/10 01:50:19;;;;;;;2.97;2.60;;;15.80;53.80;;;;;;5072818;28;20474;-61
2020/12/10 01:52:49;;;;;;;3.00;2.20;;;15.80;53.80;;;;;;5072624;28;20107;-61
2020/12/10 01:55:15;;;;;;;2.87;2.50;;;15.90;53.80;;;;;;5054701;28;20027;-61
2020/12/10 01:57:40;;;;;;;3.03;2.30;;;16.10;53.80;;;;;;5072890;28;20283;-61
2020/12/10 02:00:06;;;;;;;2.55;2.35;;;16.00;53.60;;;;;;5072888;28;20047;-62
2020/12/10 02:02:32;;;;;;;3.03;2.20;;;16.00;53.50;;;;;;5072874;28;20024;-61
2020/12/10 02:04:57;;;;;;;4.35;2.35;;;16.00;53.50;;;;;;5072436;28;20204;-61
2020/12/10 02:07:23;;;;;;;2.55;1.95;;;16.00;53.50;;;;;;5072892;28;20076;-61
2020/12/10 02:09:48;;;;;;;3.60;2.33;;;16.00;53.50;;;;;;5054512;28;20385;-61
2020/12/10 02:12:14;;;;;;;3.55;2.63;;;16.10;53.50;;;;;;5072526;28;20028;-61
2020/12/10 02:14:40;;;;;;;3.15;2.53;;;16.00;53.50;;;;;;5072640;28;20020;-61
2020/12/10 02:17:07;;;;;;;2.35;2.15;;;16.10;53.50;;;;;;5072783;28;20100;-61
2020/12/10 02:19:33;;;;;;;2.45;2.25;;;16.10;53.60;;;;;;5072476;28;20044;-61
2020/12/10 02:21:59;;;;;;;2.63;2.22;;;16.00;53.50;;;;;;5072255;28;20492;-61
2020/12/10 02:24:25;;;;;;;3.17;2.53;;;16.10;53.50;;;;;;5072376;28;20016;-61
2020/12/10 02:26:51;;;;;;;2.45;2.10;;;16.00;53.50;;;;;;5072307;28;20033;-61
2020/12/10 02:29:18;;;;;;;2.58;1.92;;;16.00;53.50;;;;;;5072329;28;20115;-61
2020/12/10 02:31:44;;;;;;;2.15;1.95;;;16.10;53.50;;;;;;5072640;28;20479;-61
2020/12/10 02:34:10;;;;;;;1.90;1.80;;;16.00;53.60;;;;;;5072571;28;20035;-61
2020/12/10 02:36:37;;;;;;;2.35;2.05;;;16.00;53.60;;;;;;5072222;28;20031;-61
2020/12/10 02:39:05;;;;;;;3.38;1.98;;;16.00;53.60;;;;;;5077396;28;20125;-61
2020/12/10 02:41:31;;;;;;;3.83;2.17;;;16.00;53.70;;;;;;5092385;28;20025;-61
2020/12/10 02:43:56;;;;;;;2.55;2.03;;;15.90;53.70;;;;;;5092512;28;20035;-61
2020/12/10 02:46:22;;;;;;;2.42;2.20;;;15.90;53.70;;;;;;5092586;28;20066;-61
2020/12/10 02:48:48;;;;;;;2.15;1.95;;;15.90;53.60;;;;;;5092587;28;20111;-61
2020/12/10 02:51:14;;;;;;;2.42;2.22;;;15.90;53.60;;;;;;5092611;28;20047;-62
2020/12/10 02:53:40;;;;;;;2.10;1.90;;;15.90;53.80;;;;;;5092301;28;20035;-61
2020/12/10 02:56:13;;;;;;;2.33;2.03;;;15.90;53.70;;;;;;5092470;28;20066;-62
2020/12/10 02:58:40;;;;;;;3.63;2.10;;;15.90;53.70;;;;;;5092417;28;20542;-62
2020/12/10 03:01:06;;;;;;;2.88;2.20;;;15.90;53.70;;;;;;5092284;28;20103;-61
2020/12/10 03:03:32;;;;;;;2.28;1.92;;;15.90;53.80;;;;;;5092514;28;20035;-62
2020/12/10 03:05:57;;;;;;;1.65;1.55;;;15.90;53.70;;;;;;5091978;28;20032;-63
2020/12/10 03:08:23;;;;;;;2.63;1.80;;;15.90;53.70;;;;;;5092183;28;20016;-61
2020/12/10 03:10:50;;;;;;;2.13;1.92;;;15.90;53.80;;;;;;5092484;28;20078;-61
2020/12/10 03:13:16;;;;;;;1.88;1.73;;;15.90;53.70;;;;;;5092060;28;20462;-61
2020/12/10 03:15:42;;;;;;;2.50;2.00;;;15.90;53.70;;;;;;5092368;28;20027;-61
2020/12/10 03:18:08;;;;;;;2.55;2.05;;;15.90;53.70;;;;;;5092044;28;20474;-61
2020/12/10 03:20:33;;;;;;;2.28;2.00;;;16.00;53.70;;;;;;5092060;28;20115;-61
2020/12/10 03:22:59;;;;;;;2.13;1.92;;;15.90;53.80;;;;;;5092291;28;20017;-61
2020/12/10 03:25:25;;;;;;;2.00;1.80;;;15.90;53.80;;;;;;5092247;28;20024;-61
2020/12/10 03:27:51;;;;;;;2.17;1.98;;;15.90;53.70;;;;;;5092315;28;20024;-61
2020/12/10 03:30:17;;;;;;;2.70;2.13;;;15.90;53.70;;;;;;5092119;28;20347;-61
2020/12/10 03:32:42;;;;;;;1.67;1.58;;;15.80;53.80;;;;;;5092221;28;20030;-61
2020/12/10 03:35:08;;;;;;;1.77;1.67;;;15.80;53.70;;;;;;5093332;28;20401;-61
2020/12/10 03:37:33;;;;;;;2.28;1.77;;;15.90;53.70;;;;;;5095806;28;20070;-61
2020/12/10 03:40:00;;;;;;;1.95;1.73;;;15.80;53.70;;;;;;5085629;28;20130;-62
2020/12/10 03:42:25;;;;;;;1.88;1.77;;;15.90;53.80;;;;;;5075245;28;20055;-61
2020/12/10 03:44:51;;;;;;;2.80;2.47;;;15.80;53.70;;;;;;5075238;28;20056;-61
2020/12/10 03:47:16;;;;;;;2.63;2.03;;;15.80;53.70;;;;;;5075148;28;20118;-61
2020/12/10 03:49:42;;;;;;;2.17;1.88;;;15.80;53.70;;;;;;5075249;28;20100;-61
2020/12/10 03:52:07;;;;;;;2.10;1.90;;;15.80;53.70;;;;;;5075195;28;20016;-61
2020/12/10 03:54:33;;;;;;;2.28;2.08;;;15.80;53.70;;;;;;5074908;28;20087;-62
2020/12/10 03:56:59;;;;;;;1.85;1.70;;;15.80;53.80;;;;;;5075119;28;20082;-61
2020/12/10 03:59:24;;;;;;;1.80;1.60;;;15.80;53.70;;;;;;5075213;28;20029;-61
2020/12/10 04:01:50;;;;;;;2.33;1.95;;;15.70;53.70;;;;;;5074897;28;20139;-61
2020/12/10 04:04:15;;;;;;;1.67;1.58;;;15.80;53.80;;;;;;5075375;28;20024;-61
2020/12/10 04:06:43;;;;;;;2.75;1.77;;;15.80;53.80;;;;;;5074552;28;20028;-61
2020/12/10 04:09:10;;;;;;;1.80;1.55;;;15.80;53.70;;;;;;5074984;28;20028;-63
2020/12/10 04:11:36;;;;;;;2.80;1.88;;;15.80;53.80;;;;;;5074950;28;20028;-61
2020/12/10 04:14:02;;;;;;;3.63;1.90;;;15.70;53.80;;;;;;5074915;28;20024;-61
2020/12/10 04:16:27;;;;;;;1.98;1.77;;;15.80;53.80;;;;;;5074861;28;20020;-61
2020/12/10 04:18:53;;;;;;;2.00;1.60;;;15.70;53.80;;;;;;5074735;28;20024;-61
2020/12/10 04:21:19;;;;;;;2.25;1.77;;;15.70;53.80;;;;;;5074412;28;20374;-61
2020/12/10 04:23:44;;;;;;;2.45;1.70;;;15.70;53.80;;;;;;5074492;28;20044;-61
2020/12/10 04:26:14;;;;;;;2.67;1.55;;;15.70;53.80;;;;;;5074604;28;20029;-61
2020/12/10 04:28:39;;;;;;;2.25;1.67;;;15.70;53.80;;;;;;5074551;28;20028;-61
2020/12/10 04:31:05;;;;;;;1.95;1.70;;;15.70;53.80;;;;;;5074570;28;20020;-62
2020/12/10 04:33:30;;;;;;;2.10;1.90;;;15.70;53.90;;;;;;5074457;28;20013;-60
2020/12/10 04:35:56;;;;;;;3.63;1.70;;;15.70;53.80;;;;;;5074184;28;20050;-61
2020/12/10 04:38:22;;;;;;;2.33;1.73;;;15.70;53.90;;;;;;5074399;28;20040;-61
2020/12/10 04:40:47;;;;;;;1.92;1.63;;;15.80;53.90;;;;;;5092164;27;20052;-61
2020/12/10 04:43:14;;;;;;;2.25;1.75;;;15.80;53.80;;;;;;5094545;28;20043;-61
2020/12/10 04:45:40;;;;;;;1.77;1.45;;;15.80;53.70;;;;;;5094208;28;20482;-61
2020/12/10 04:48:06;;;;;;;1.85;1.60;;;15.80;53.60;;;;;;5076141;28;20166;-61
2020/12/10 04:50:34;;;;;;;1.83;1.45;;;15.90;53.60;;;;;;5094038;28;20027;-61
2020/12/10 04:53:00;;;;;;;1.98;1.70;;;15.90;53.50;;;;;;5094426;28;20370;-61
2020/12/10 04:55:26;;;;;;;1.77;1.50;;;15.90;53.40;;;;;;5094084;28;20099;-61
2020/12/10 04:57:54;;;;;;;2.08;1.75;;;16.00;53.50;;;;;;5094325;28;20385;-61
2020/12/10 05:00:21;;;;;;;1.67;1.45;;;15.90;53.40;;;;;;5094321;28;20012;-62
2020/12/10 05:02:47;;;;;;;1.65;1.55;;;16.00;53.40;;;;;;5094284;28;20028;-62
2020/12/10 05:05:33;;;;;;;2.38;1.90;;;16.00;53.30;;;;;;5094080;28;20020;-61
2020/12/10 05:08:00;;;;;;;2.47;1.40;;;16.00;53.30;;;;;;5094071;28;20040;-61
2020/12/10 05:10:27;;;;;;;1.48;1.27;;;16.00;53.30;;;;;;5094095;28;20073;-61
2020/12/10 05:13:07;;;;;;;3.30;1.67;;;16.00;53.30;;;;;;5094103;28;20046;-61
2020/12/10 05:15:34;;;;;;;1.83;1.48;;;16.00;53.40;;;;;;5094104;28;20149;-62
2020/12/10 05:18:09;;;;;;;3.58;1.63;;;16.00;53.40;;;;;;5093636;28;20478;-62
2020/12/10 05:20:46;;;;;;;2.10;1.58;;;16.00;53.40;;;;;;5075482;28;20077;-62
2020/12/10 05:23:28;;;;;;;1.90;1.40;;;16.00;53.50;;;;;;5093910;28;20024;-61
2020/12/10 05:25:55;;;;;;;1.70;1.60;;;16.00;53.40;;;;;;5093511;28;20037;-62
2020/12/10 05:28:22;;;;;;;1.95;1.65;;;16.00;53.50;;;;;;5093782;28;20377;-61
2020/12/10 05:31:05;;;;;;;1.70;1.60;;;16.00;54.20;;;;;;5093498;28;20024;-62
2020/12/10 05:33:31;;;;;;;1.92;1.73;;;15.90;53.50;;;;;;5093666;28;20370;-61
2020/12/10 05:36:08;;;;;;;3.38;1.90;;;15.90;53.50;;;;;;5093643;28;20073;-61
2020/12/10 05:38:34;;;;;;;2.17;1.70;;;16.00;53.70;;;;;;5093592;28;20101;-62
2020/12/10 05:41:20;;;;;;;2.28;1.52;;;15.90;53.70;;;;;;5093890;28;20085;-61
2020/12/10 05:43:46;;;;;;;2.35;1.70;;;15.90;53.60;;;;;;5093368;28;20035;-61
2020/12/10 05:46:17;;;;;;;1.88;1.67;;;15.80;53.70;;;;;;5093395;28;20024;-61
2020/12/10 05:48:45;;;;;;;2.22;1.75;;;15.80;53.80;;;;;;5093337;28;20024;-61
2020/12/10 05:51:20;;;;;;;1.80;1.60;;;15.80;53.80;;;;;;5093063;28;20496;-63
2020/12/10 05:53:46;;;;;;;2.03;1.67;;;15.80;53.70;;;;;;5093002;28;20024;-62
2020/12/10 05:56:14;;;;;;;1.98;1.83;;;15.80;53.80;;;;;;5093337;28;20027;-62
2020/12/10 05:58:53;;;;;;;2.10;1.90;;;15.80;53.80;;;;;;5092477;28;20500;-61
2020/12/10 06:01:27;;;;;;;2.20;2.00;;;15.80;53.70;;;;;;5093273;28;20465;-62
2020/12/10 06:03:54;;;;;;;1.85;1.63;;;15.80;53.70;;;;;;5093532;28;20039;-61
2020/12/10 06:06:20;;;;;;;1.85;1.75;;;15.80;53.90;;;;;;5092969;28;20032;-62
2020/12/10 06:08:49;;;;;;;1.90;1.75;;;15.80;53.80;;;;;;5093107;28;20046;-62
2020/12/10 06:11:19;;;;;;;2.17;1.85;;;15.80;53.70;;;;;;5092693;28;20035;-62
2020/12/10 06:13:46;;;;;;;1.58;1.48;;;15.80;53.60;;;;;;5093015;28;20095;-61
2020/12/10 06:16:17;;;;;;;2.15;1.73;;;15.90;53.60;;;;;;5092799;28;20024;-62
2020/12/10 06:19:05;;;;;;;1.60;1.50;;;15.90;53.50;;;;;;5093166;28;20016;-62
2020/12/10 06:21:32;;;;;;;1.88;1.77;;;16.00;53.50;;;;;;5092983;28;20381;-61
2020/12/10 06:23:58;;;;;;;2.38;2.10;;;16.00;53.30;;;;;;5092831;28;20022;-62
2020/12/10 06:26:24;;;;;;;1.90;1.77;;;15.90;53.10;;;;;;5092743;28;20123;-61
2020/12/10 06:28:51;;;;;;;2.70;2.10;;;16.10;53.00;;;;;;5092798;28;20012;-61
2020/12/10 06:31:16;;;;;;;3.00;2.22;;;16.10;52.90;;;;;;5092260;28;20024;-61
2020/12/10 06:33:44;;;;;;;3.03;2.60;;;16.10;52.80;;;;;;5092547;28;20012;-61
2020/12/10 06:36:28;;;;;;;2.67;2.15;;;16.20;52.70;;;;;;5092747;28;20032;-62
2020/12/10 06:38:55;;;;;;;4.47;2.40;;;16.20;52.70;;;;;;5092700;28;20017;-62
2020/12/10 06:41:22;;;;;;;2.45;2.13;;;16.20;52.70;;;;;;5092757;28;20048;-61
2020/12/10 06:43:48;;;;;;;3.58;2.47;;;16.30;52.70;;;;;;5092465;28;20020;-62
2020/12/10 06:46:13;;;;;;;2.10;1.90;;;16.30;52.60;;;;;;5074063;28;20043;-61
2020/12/10 06:48:44;;;;;;;4.65;2.47;;;16.30;52.50;;;;;;5092930;28;20043;-61
2020/12/10 06:51:15;;;;;;;2.25;2.03;;;16.30;52.50;;;;;;5092325;28;20032;-62
2020/12/10 06:54:01;;;;;;;2.30;2.10;;;16.40;52.40;;;;;;5092411;28;20020;-61
2020/12/10 06:56:27;;;;;;;2.75;2.35;;;16.30;52.30;;;;;;5092134;28;20154;-62
2020/12/10 06:58:59;;;;;;;2.85;2.13;;;16.40;52.20;;;;;;5092207;28;20462;-62
2020/12/10 07:01:35;;;;;;;4.63;2.00;;;16.40;52.20;;;;;;5092182;28;20028;-61
2020/12/10 07:04:19;;;;;;;4.78;2.20;;;16.50;52.80;;;;;;5092001;28;20019;-61
2020/12/10 07:07:14;;;;;;;3.38;2.38;;;16.50;52.70;;;;;;5091936;28;20085;-61
2020/12/10 07:09:58;;;;;;;4.00;2.25;;;16.50;52.80;;;;;;5092772;28;20031;-61
2020/12/10 07:12:26;;;;;;;4.32;2.10;;;16.60;52.70;;;;;;5096298;28;20386;-61
2020/12/10 07:15:10;;;;;;;3.70;2.50;;;16.60;52.70;;;;;;5096282;28;20016;-61
2020/12/10 07:17:35;;;;;;;4.13;2.28;;;16.60;52.70;;;;;;5096183;28;20024;-61
2020/12/10 07:20:01;;;;;;;4.95;2.47;;;16.60;52.70;;;;;;5096245;28;20123;-60
2020/12/10 07:22:27;;;;;;;3.47;2.03;;;16.70;52.70;;;;;;5094319;28;20023;-61
2020/12/10 07:24:52;;;;;;;5.72;2.65;;;16.60;52.60;;;;;;5094141;28;20035;-61
2020/12/10 07:27:18;;;;;;;9.20;1.90;;;16.70;52.60;;;;;;5094046;28;20043;-61
2020/12/10 07:29:50;;;;;;;6.28;2.85;;;16.70;52.60;;;;;;5095853;28;20020;-61
2020/12/10 07:32:16;;;;;;;3.05;2.40;;;16.70;52.50;;;;;;5096012;28;20114;-61
2020/12/10 07:34:43;;;;;;;4.95;2.63;;;16.70;52.40;;;;;;5095732;28;20122;-61
2020/12/10 07:37:14;;;;;;;4.13;2.50;;;16.70;52.30;;;;;;5095835;28;20028;-61
2020/12/10 07:39:47;;;;;;;2.58;2.05;;;16.70;52.30;;;;;;5092615;27;20045;-61
2020/12/10 07:42:18;;;;;;;3.17;2.30;;;16.70;52.20;;;;;;5057571;28;20029;-61
2020/12/10 07:44:44;;;;;;;5.25;2.78;;;16.80;52.20;;;;;;5075235;28;20020;-61
2020/12/10 07:47:12;;;;;;;3.78;2.47;;;16.80;52.10;;;;;;5075046;28;20046;-61
2020/12/10 07:49:38;;;;;;;5.18;2.35;;;16.80;52.10;;;;;;5075332;28;20103;-61
2020/12/10 07:52:13;;;;;;;2.63;2.00;;;16.80;52.10;;;;;;5075292;28;20029;-61
2020/12/10 07:54:55;;;;;;;3.30;2.58;;;16.80;51.90;;;;;;5075231;28;20043;-61
2020/12/10 07:57:35;;;;;;;3.03;2.33;;;16.90;51.90;;;;;;5074041;28;20028;-61
2020/12/10 08:00:05;;;;;;;2.35;2.00;;;16.90;51.80;;;;;;5074911;28;20016;-61
2020/12/10 08:02:46;;;;;;;4.72;2.10;;;16.90;51.80;;;;;;5075135;28;20029;-61
2020/12/10 08:05:16;;;;;;;2.88;2.33;;;16.90;51.70;;;;;;5074630;28;20030;-61
2020/12/10 08:07:50;;;;;;;2.92;2.05;;;16.90;51.60;;;;;;5075188;28;20063;-61
2020/12/10 08:10:25;;;;;;;3.30;2.10;;;17.00;51.60;;;;;;5075060;28;20023;-61
2020/12/10 08:13:13;;;;;;;4.40;2.17;;;16.90;51.50;;;;;;5074753;28;20024;-61
2020/12/10 08:15:41;;;;;;;3.03;2.67;;;17.00;51.50;;;;;;5061772;28;20058;-61
2020/12/10 08:18:09;;;;;;;3.40;2.33;;;17.00;51.40;;;;;;5074570;28;20035;-61
2020/12/10 08:20:36;;;;;;;2.88;2.22;;;17.00;51.40;;;;;;5055921;28;20063;-61
2020/12/10 08:23:02;;;;;;;2.80;2.55;;;17.00;51.30;;;;;;5074540;28;20107;-61
2020/12/10 08:25:28;;;;;;;2.58;2.00;;;17.00;51.30;;;;;;5074701;28;20179;-61
2020/12/10 08:27:53;;;;;;;3.97;2.47;;;17.00;51.30;;;;;;5074357;28;20177;-61
2020/12/10 08:30:19;;;;;;;2.20;2.00;;;17.00;51.30;;;;;;5074752;28;20008;-61
2020/12/10 08:32:56;;;;;;;2.78;2.45;;;17.10;51.30;;;;;;5074298;28;20032;-61
2020/12/10 08:35:22;;;;;;;3.38;2.25;;;17.00;51.10;;;;;;5074664;28;20016;-61
2020/12/10 08:37:48;;;;;;;1.90;1.80;;;17.00;51.10;;;;;;5074204;28;20033;-61
2020/12/10 08:40:23;;;;;;;4.20;2.10;;;17.00;51.10;;;;;;5082746;27;20043;-61
2020/12/10 08:42:49;;;;;;;5.90;2.13;;;17.00;51.10;;;;;;5094736;28;20020;-61
2020/12/10 08:45:28;;;;;;;2.83;1.90;;;17.00;51.00;;;;;;5094378;28;20035;-61
2020/12/10 08:48:04;;;;;;;2.50;2.30;;;17.00;50.90;;;;;;5094663;28;20078;-61
2020/12/10 08:50:30;;;;;;;5.40;2.17;;;16.90;50.80;;;;;;5076133;28;20024;-61
2020/12/10 08:52:59;;;;;;;2.60;2.28;;;16.90;50.70;;;;;;5094328;28;20019;-61
2020/12/10 08:55:28;;;;;;;3.05;2.58;;;16.90;50.70;;;;;;5094431;28;20024;-60
2020/12/10 08:57:56;;;;;;;3.10;2.00;;;16.90;50.50;;;;;;5094544;28;20416;-60
2020/12/10 09:00:21;;;;;;;2.97;2.25;;;16.90;50.50;;;;;;5094099;28;20028;-60
2020/12/10 09:02:47;;;;;;;2.95;2.17;;;16.90;50.50;;;;;;5075868;28;20038;-60
2020/12/10 09:05:16;;;;;;;2.63;2.00;;;16.90;50.50;;;;;;5094150;28;20027;-60
2020/12/10 09:07:41;;;;;;;3.92;2.50;;;16.90;50.80;;;;;;5094237;28;20020;-60
2020/12/10 09:10:07;;;;;;;2.58;2.03;;;17.00;50.60;;;;;;5094464;28;20335;-60
2020/12/10 09:12:33;;;;;;;2.95;2.00;;;16.90;50.50;;;;;;5094124;28;20062;-60
2020/12/10 09:14:58;;;;;;;2.38;1.83;;;17.00;50.60;;;;;;5094132;28;20020;-60
2020/12/10 09:17:26;;;;;;;2.35;1.75;;;17.00;50.50;;;;;;5094089;28;20016;-60
2020/12/10 09:19:51;;;;;;;2.17;1.95;;;17.10;50.50;;;;;;5093680;28;20024;-60
2020/12/10 09:22:17;;;;;;;2.20;1.98;;;17.10;50.40;;;;;;5093631;28;20028;-60
2020/12/10 09:24:42;;;;;;;1.95;1.70;;;17.10;50.30;;;;;;5093909;28;20023;-60
2020/12/10 09:27:20;;;;;;;2.20;2.00;;;17.30;50.30;;;;;;5076747;28;20468;-60
2020/12/10 09:29:46;;;;;;;3.63;2.22;;;17.20;50.10;;;;;;5093821;28;20020;-60
2020/12/10 09:32:11;;;;;;;2.50;2.17;;;17.30;50.10;;;;;;5092967;28;20042;-60
2020/12/10 09:34:37;;;;;;;3.13;2.10;;;17.30;50.10;;;;;;5075417;28;20425;-60
2020/12/10 09:37:03;;;;;;;3.00;1.45;;;17.30;50.00;;;;;;5093691;28;20027;-60
2020/12/10 09:39:35;;;;;;;2.13;1.80;;;17.30;49.90;;;;;;5093959;27;20465;-61
2020/12/10 09:42:08;;;;;;;1.92;1.73;;;17.30;49.90;;;;;;5093677;28;20043;-60
2020/12/10 09:44:34;;;;;;;2.42;2.08;;;17.30;50.00;;;;;;5093540;28;20063;-60
2020/12/10 09:46:59;;;;;;;2.03;1.77;;;17.30;50.10;;;;;;5093439;28;20064;-60
2020/12/10 09:49:25;;;;;;;2.08;1.88;;;17.30;50.00;;;;;;5093065;28;20020;-60
2020/12/10 09:51:55;;;;;;;3.15;2.03;;;17.30;50.00;;;;;;5092979;28;20025;-60
2020/12/10 09:59:21;;;;;;;2.00;1.80;;;17.30;50.10;;;;;;5093390;28;20040;-60
2020/12/10 10:01:47;;;;;;;1.77;1.63;;;17.30;50.00;;;;;;5093273;28;20024;-60
2020/12/10 10:04:13;;;;;;;4.13;1.80;;;17.30;50.20;;;;;;5093225;28;20024;-60
2020/12/10 10:06:41;;;;;;;1.83;1.50;;;17.30;50.10;;;;;;5093091;28;20032;-60
2020/12/10 10:09:06;;;;;;;2.13;1.80;;;17.40;50.10;;;;;;5093257;28;20020;-60
2020/12/10 10:11:32;;;;;;;1.90;1.70;;;17.40;50.00;;;;;;5092849;28;20024;-60
2020/12/10 10:13:58;;;;;;;2.95;1.48;;;17.30;50.00;;;;;;5093127;28;20022;-60
2020/12/10 10:16:33;;;;;;;2.22;1.77;;;17.30;50.00;;;;;;5092764;28;20024;-60
2020/12/10 10:19:00;;;;;;;3.20;1.55;;;17.40;50.10;;;;;;5092856;28;20075;-60
2020/12/10 10:21:27;;;;;;;1.90;1.70;;;17.40;50.10;;;;;;5092864;28;20028;-60
2020/12/10 10:23:54;;;;;;;2.20;1.73;;;17.30;50.10;;;;;;5092988;28;20024;-61
2020/12/10 10:26:20;;;;;;;2.38;1.55;;;17.30;50.20;;;;;;5092849;28;20032;-60
2020/12/10 10:28:48;;;;;;;2.10;1.73;;;17.30;50.20;;;;;;5092607;28;20034;-60
2020/12/10 10:31:13;;;;;;;2.30;1.88;;;17.20;50.20;;;;;;5092835;28;20028;-61
2020/12/10 10:33:39;;;;;;;2.10;1.55;;;17.10;50.30;;;;;;5074360;28;20096;-61
2020/12/10 10:36:05;;;;;;;2.17;1.65;;;17.10;50.40;;;;;;5092917;28;20024;-61
2020/12/10 10:38:32;;;;;;;2.35;1.55;;;17.10;50.50;;;;;;5092999;28;20533;-60
2020/12/10 10:40:58;;;;;;;2.55;1.98;;;17.10;50.40;;;;;;5093287;28;20048;-61
2020/12/10 10:43:24;;;;;;;2.10;1.90;;;17.10;50.40;;;;;;5093024;28;20062;-59
2020/12/10 10:45:50;;;;;;;2.03;1.45;;;17.10;50.50;;;;;;5096636;28;20047;-58
2020/12/10 10:48:16;;;;;;;1.70;1.60;;;17.10;50.50;;;;;;5096865;28;20027;-59
2020/12/10 10:50:41;;;;;;;2.97;1.80;;;17.10;50.40;;;;;;5096743;28;20023;-59
2020/12/10 10:53:07;;;;;;;2.35;1.45;;;17.10;50.40;;;;;;5097111;28;20403;-60
2020/12/10 10:55:32;;;;;;;1.80;1.70;;;17.10;50.50;;;;;;5096458;28;20017;-59
2020/12/10 10:57:58;;;;;;;1.85;1.50;;;17.10;50.40;;;;;;5094656;28;20048;-60
2020/12/10 11:00:24;;;;;;;2.85;1.60;;;17.20;50.50;;;;;;5096382;28;20024;-60
2020/12/10 11:02:49;;;;;;;1.65;1.50;;;17.20;50.40;;;;;;5096337;28;20024;-60
2020/12/10 11:05:15;;;;;;;1.50;1.38;;;17.10;50.40;;;;;;5096559;28;20078;-60
2020/12/10 11:07:42;;;;;;;1.30;1.20;;;17.20;50.50;;;;;;5096514;28;20032;-59
2020/12/10 11:10:08;;;;;;;1.95;1.50;;;17.20;50.40;;;;;;5096386;28;20032;-60
2020/12/10 11:12:34;;;;;;;2.13;1.70;;;17.20;50.30;;;;;;5096391;28;20024;-59
2020/12/10 11:15:00;;;;;;;2.22;1.75;;;17.40;50.30;;;;;;5096206;28;20020;-60
2020/12/10 11:17:25;;;;;;;2.42;1.85;;;17.20;50.20;;;;;;5096129;28;20027;-60
2020/12/10 11:19:51;;;;;;;2.13;1.63;;;17.30;50.10;;;;;;5096020;28;20488;-60
2020/12/10 11:22:17;;;;;;;1.67;1.58;;;17.30;50.00;;;;;;5096341;28;20035;-60
2020/12/10 11:24:43;;;;;;;1.67;1.58;;;17.30;50.00;;;;;;5096189;28;20040;-60
2020/12/10 11:27:08;;;;;;;3.33;1.60;;;17.40;49.90;;;;;;5095708;28;20032;-60
2020/12/10 11:29:34;;;;;;;1.98;1.45;;;17.40;49.90;;;;;;5095924;28;20028;-60
2020/12/10 11:31:59;;;;;;;1.90;1.70;;;17.40;49.90;;;;;;5095840;28;20052;-60
2020/12/10 11:34:25;;;;;;;1.80;1.50;;;17.40;49.80;;;;;;5096104;28;20024;-60
2020/12/10 11:36:51;;;;;;;1.80;1.50;;;17.40;49.90;;;;;;5096000;28;20142;-60
2020/12/10 11:39:17;;;;;;;2.10;1.60;;;17.40;49.90;;;;;;5095593;28;20027;-60
2020/12/10 11:41:43;;;;;;;1.88;1.58;;;17.30;50.00;;;;;;5096154;28;20122;-59
2020/12/10 11:44:10;;;;;;;2.60;1.80;;;17.30;50.00;;;;;;5095871;28;20026;-61
2020/12/10 11:46:36;;;;;;;1.60;1.50;;;17.30;49.90;;;;;;5095435;28;20032;-60
2020/12/10 11:49:02;;;;;;;2.50;1.98;;;17.20;50.20;;;;;;5095449;28;20028;-60
2020/12/10 11:51:32;;;;;;;2.40;1.90;;;17.20;50.20;;;;;;5095567;28;20416;-60
2020/12/10 11:53:58;;;;;;;2.08;1.60;;;17.10;50.30;;;;;;5095627;28;20111;-60
2020/12/10 11:56:23;;;;;;;2.17;1.42;;;17.00;50.40;;;;;;5094516;28;20081;-59
2020/12/10 11:58:49;;;;;;;2.65;1.90;;;17.00;50.30;;;;;;5095518;28;20398;-59
2020/12/10 12:01:15;;;;;;;2.13;1.92;;;17.00;50.40;;;;;;5095313;28;20032;-60
2020/12/10 12:03:40;;;;;;;2.72;2.13;;;17.00;50.40;;;;;;5095586;28;20019;-59
2020/12/10 12:06:06;;;;;;;2.75;2.22;;;17.00;50.90;;;;;;5095284;28;20085;-59
2020/12/10 12:08:35;;;;;;;1.98;1.67;;;17.00;50.20;;;;;;5095047;28;20501;-59
2020/12/10 12:11:01;;;;;;;2.20;1.95;;;17.00;50.80;;;;;;5095381;28;20024;-61
2020/12/10 12:13:27;;;;;;;2.35;2.00;;;17.00;50.10;;;;;;5095361;28;20024;-60
2020/12/10 12:15:53;;;;;;;2.97;2.00;;;17.00;50.70;;;;;;5095534;28;20024;-61
2020/12/10 12:18:18;;;;;;;1.95;1.70;;;16.90;50.00;;;;;;5095265;28;20032;-60
2020/12/10 12:20:44;;;;;;;2.42;1.88;;;17.00;50.10;;;;;;5094724;28;20534;-60
2020/12/10 12:23:11;;;;;;;2.50;2.10;;;17.00;50.00;;;;;;5095139;28;20039;-60
2020/12/10 12:25:40;;;;;;;1.73;1.50;;;16.90;50.00;;;;;;5094979;28;20035;-60
2020/12/10 12:28:06;;;;;;;2.38;1.63;;;17.00;50.00;;;;;;5095008;28;20020;-60
2020/12/10 12:30:32;;;;;;;2.72;1.80;;;17.00;50.00;;;;;;5094673;28;20020;-61
2020/12/10 12:32:59;;;;;;;2.55;1.90;;;17.00;50.00;;;;;;5094820;28;20054;-60
2020/12/10 12:35:24;;;;;;;2.10;1.80;;;17.00;50.10;;;;;;5094442;28;20505;-60
2020/12/10 12:37:50;;;;;;;1.50;1.40;;;17.00;50.00;;;;;;5094889;28;20020;-60
2020/12/10 12:40:16;;;;;;;1.70;1.60;;;17.00;50.10;;;;;;5095167;28;20055;-60
2020/12/10 12:42:43;;;;;;;2.53;1.58;;;17.00;50.10;;;;;;5094543;28;20024;-61
2020/12/10 12:45:10;;;;;;;2.38;1.83;;;16.90;50.00;;;;;;5094229;28;20020;-61
2020/12/10 12:47:36;;;;;;;3.20;1.90;;;17.00;50.10;;;;;;5094199;28;20032;-61
2020/12/10 12:50:05;;;;;;;2.60;1.88;;;16.90;50.10;;;;;;5094516;28;20020;-61
2020/12/10 12:52:31;;;;;;;1.85;1.63;;;16.90;50.80;;;;;;5094667;28;20051;-61
2020/12/10 12:54:57;;;;;;;2.28;1.98;;;17.00;50.30;;;;;;5094423;28;20012;-61